createdAt,value
2023-07-28T00:01:01.385Z,2.78
2023-07-28T00:03:30.443Z,2.97
2023-07-28T00:05:57.045Z,2.55
2023-07-28T00:08:23.501Z,2.55
2023-07-28T00:10:49.949Z,2.65
2023-07-28T00:13:16.410Z,3.00
2023-07-28T00:15:42.942Z,1.90
2023-07-28T00:18:09.369Z,3.63
2023-07-28T00:20:38.218Z,3.65
2023-07-28T00:23:07.164Z,2.97
2023-07-28T00:25:33.638Z,3.70
2023-07-28T00:28:00.241Z,3.10
2023-07-28T00:30:27.739Z,3.33
2023-07-28T00:32:54.306Z,3.72
2023-07-28T00:35:23.132Z,3.45
2023-07-28T00:37:49.557Z,2.45
2023-07-28T00:40:18.459Z,2.25
2023-07-28T00:42:46.669Z,3.70
2023-07-28T00:45:15.452Z,2.60
2023-07-28T00:47:42.260Z,2.38
2023-07-28T00:50:11.581Z,2.60
2023-07-28T00:52:38.934Z,2.13
2023-07-28T00:55:07.330Z,2.33
2023-07-28T00:57:34.912Z,2.80
2023-07-28T01:00:02.434Z,3.45
2023-07-28T01:02:29.059Z,2.97
2023-07-28T01:04:55.612Z,2.45
2023-07-28T01:07:31.191Z,2.85
2023-07-28T01:10:11.619Z,2.28
2023-07-28T01:12:41.158Z,2.72
2023-07-28T01:15:07.981Z,3.08
2023-07-28T01:17:34.519Z,2.83
2023-07-28T01:20:01.069Z,2.72
2023-07-28T01:22:56.618Z,2.30
2023-07-28T01:25:34.572Z,2.97
2023-07-28T01:28:04.659Z,2.28
2023-07-28T01:30:31.296Z,2.90
2023-07-28T01:32:58.902Z,3.25
2023-07-28T01:35:27.419Z,3.10
2023-07-28T01:37:56.186Z,2.40
2023-07-28T01:40:22.621Z,2.28
2023-07-28T01:42:49.071Z,3.03
2023-07-28T01:45:15.483Z,3.08
2023-07-28T01:47:42.015Z,3.10
2023-07-28T01:50:08.685Z,2.80
2023-07-28T01:52:35.155Z,2.78
2023-07-28T01:55:01.572Z,1.75
2023-07-28T01:57:28.806Z,1.85
2023-07-28T01:59:55.695Z,3.03
2023-07-28T02:02:24.690Z,3.20
2023-07-28T02:04:51.313Z,3.03
2023-07-28T02:07:17.778Z,2.22
2023-07-28T02:09:44.310Z,2.30
2023-07-28T02:12:10.946Z,2.63
2023-07-28T02:14:37.435Z,3.03
2023-07-28T02:17:06.850Z,2.60
2023-07-28T02:19:33.341Z,2.85
2023-07-28T02:21:59.952Z,3.58
2023-07-28T02:24:26.372Z,2.80
2023-07-28T02:26:52.921Z,2.90
2023-07-28T02:29:19.360Z,2.60
2023-07-28T02:31:45.804Z,2.35
2023-07-28T02:34:14.992Z,3.05
2023-07-28T02:36:43.949Z,3.10
2023-07-28T02:39:10.390Z,3.30
2023-07-28T02:41:36.823Z,3.47
2023-07-28T02:44:03.425Z,2.83
2023-07-28T02:46:29.864Z,3.03
2023-07-28T02:48:56.426Z,3.17
2023-07-28T02:51:27.785Z,3.80
2023-07-28T02:53:54.236Z,4.07
2023-07-28T02:56:21.772Z,3.85
2023-07-28T02:58:48.309Z,3.67
2023-07-28T03:01:14.860Z,2.90
2023-07-28T03:03:41.447Z,3.50
2023-07-28T03:06:07.986Z,2.30
2023-07-28T03:08:36.986Z,2.97
2023-07-28T03:11:03.649Z,3.20
2023-07-28T03:13:32.327Z,3.40
2023-07-28T03:15:58.791Z,3.10
2023-07-28T03:18:25.660Z,3.40
2023-07-28T03:20:52.092Z,3.00
2023-07-28T03:23:18.522Z,2.58
2023-07-28T03:25:45.052Z,2.90
2023-07-28T03:28:14.061Z,2.75
2023-07-28T03:30:40.594Z,2.67
2023-07-28T03:33:09.683Z,3.15
2023-07-28T03:35:36.180Z,2.92
2023-07-28T03:38:03.092Z,2.63
2023-07-28T03:40:31.709Z,3.25
2023-07-28T03:42:58.617Z,3.10
2023-07-28T03:45:25.075Z,2.70
2023-07-28T03:47:53.936Z,2.55
2023-07-28T03:50:20.388Z,2.88
2023-07-28T03:52:49.212Z,2.80
2023-07-28T03:55:15.742Z,2.63
2023-07-28T03:57:42.257Z,2.53
2023-07-28T04:00:09.606Z,2.38
2023-07-28T04:02:38.488Z,2.95
2023-07-28T04:05:05.341Z,3.00
2023-07-28T04:07:33.852Z,2.33
2023-07-28T04:10:08.738Z,2.50
2023-07-28T04:12:35.188Z,2.30
2023-07-28T04:15:07.756Z,2.65
2023-07-28T04:17:34.290Z,2.83
2023-07-28T04:20:00.762Z,1.90
2023-07-28T04:22:27.797Z,2.53
2023-07-28T04:24:55.104Z,2.85
2023-07-28T04:27:21.546Z,2.72
2023-07-28T04:29:48.103Z,2.60
2023-07-28T04:32:14.761Z,2.20
2023-07-28T04:34:41.236Z,1.80
2023-07-28T04:37:07.796Z,2.38
2023-07-28T04:39:34.308Z,2.17
2023-07-28T04:42:02.818Z,1.73
2023-07-28T04:44:29.795Z,2.30
2023-07-28T04:46:56.289Z,2.30
2023-07-28T04:49:22.705Z,2.22
2023-07-28T04:51:53.408Z,2.28
2023-07-28T04:54:19.857Z,2.20
2023-07-28T04:56:47.056Z,2.42
2023-07-28T04:59:13.515Z,2.28
2023-07-28T05:01:39.991Z,2.33
2023-07-28T05:04:08.460Z,1.90
2023-07-28T05:06:35.015Z,1.65
2023-07-28T05:09:01.428Z,2.03
2023-07-28T05:11:27.846Z,1.63
2023-07-28T05:13:54.419Z,1.88
2023-07-28T05:16:20.956Z,2.03
2023-07-28T05:18:49.660Z,1.52
2023-07-28T05:21:16.139Z,1.50
2023-07-28T05:23:42.634Z,2.17
2023-07-28T05:26:09.057Z,1.52
2023-07-28T05:28:37.200Z,1.80
2023-07-28T05:31:09.365Z,1.77
2023-07-28T05:33:42.489Z,1.73
2023-07-28T05:36:11.443Z,1.75
2023-07-28T05:38:37.902Z,1.70
2023-07-28T05:41:08.246Z,1.20
2023-07-28T05:43:36.827Z,1.38
2023-07-28T05:46:03.995Z,1.40
2023-07-28T05:48:32.976Z,0.95
2023-07-28T05:50:59.449Z,1.58
2023-07-28T05:53:25.941Z,1.27
2023-07-28T05:55:52.408Z,1.50
2023-07-28T05:58:18.981Z,1.08
2023-07-28T06:00:45.473Z,1.52
2023-07-28T06:03:13.359Z,1.30
2023-07-28T06:05:43.542Z,1.48
2023-07-28T06:08:12.646Z,1.83
2023-07-28T06:10:39.668Z,1.90
2023-07-28T06:13:06.248Z,1.77
2023-07-28T06:15:35.862Z,1.80
2023-07-28T06:18:03.435Z,1.60
2023-07-28T06:20:30.989Z,1.55
2023-07-28T06:22:57.512Z,1.67
2023-07-28T06:25:24.067Z,2.13
2023-07-28T06:27:50.563Z,2.28
2023-07-28T06:30:17.048Z,2.63
2023-07-28T06:32:43.697Z,4.20
2023-07-28T06:35:10.486Z,3.38
2023-07-28T06:37:40.521Z,2.88
2023-07-28T06:40:09.244Z,3.25
2023-07-28T06:42:36.233Z,3.20
2023-07-28T06:45:03.525Z,3.20
2023-07-28T06:47:32.327Z,2.67
2023-07-28T06:50:01.243Z,2.78
2023-07-28T06:52:32.935Z,2.97
2023-07-28T06:55:01.822Z,2.85
2023-07-28T06:57:28.265Z,2.80
2023-07-28T06:59:54.745Z,2.10
2023-07-28T07:02:21.190Z,3.03
2023-07-28T07:04:49.775Z,3.00
2023-07-28T07:07:16.363Z,3.08
2023-07-28T07:09:42.855Z,2.95
2023-07-28T07:12:11.811Z,3.50
2023-07-28T07:14:40.876Z,2.88
2023-07-28T07:17:08.235Z,2.58
2023-07-28T07:19:34.801Z,2.72
2023-07-28T07:22:01.772Z,2.58
2023-07-28T07:24:28.184Z,2.75
2023-07-28T07:26:54.675Z,2.40
2023-07-28T07:29:21.170Z,2.38
2023-07-28T07:31:50.076Z,2.20
2023-07-28T07:34:21.318Z,2.25
2023-07-28T07:36:48.210Z,2.10
2023-07-28T07:39:14.790Z,2.03
2023-07-28T07:41:41.213Z,2.00
2023-07-28T07:44:07.731Z,2.22
2023-07-28T07:46:34.226Z,2.35
2023-07-28T07:49:00.750Z,2.45
2023-07-28T07:51:27.409Z,2.47
2023-07-28T07:53:53.877Z,2.55
2023-07-28T07:56:20.405Z,2.80
2023-07-28T07:58:49.441Z,1.70
2023-07-28T08:01:15.905Z,1.83
2023-07-28T08:03:42.406Z,2.20
2023-07-28T08:06:11.066Z,1.58
2023-07-28T08:08:37.831Z,1.70
2023-07-28T08:11:04.451Z,2.33
2023-07-28T08:13:31.140Z,1.55
2023-07-28T08:15:57.811Z,1.67
2023-07-28T08:18:28.861Z,1.75
2023-07-28T08:20:57.809Z,1.63
2023-07-28T08:23:24.318Z,2.13
2023-07-28T08:25:50.713Z,1.80
2023-07-28T08:28:17.185Z,2.17
2023-07-28T08:30:43.690Z,2.67
2023-07-28T08:33:10.194Z,2.13
2023-07-28T08:35:36.706Z,2.63
2023-07-28T08:38:04.670Z,2.40
2023-07-28T08:40:31.160Z,2.30
2023-07-28T08:42:57.656Z,2.30
2023-07-28T08:45:25.570Z,2.58
2023-07-28T08:47:54.495Z,2.10
2023-07-28T08:50:21.157Z,1.88
2023-07-28T08:52:47.933Z,1.73
2023-07-28T08:55:14.555Z,2.20
2023-07-28T08:57:41.183Z,2.38
2023-07-28T09:00:14.946Z,1.90
2023-07-28T09:02:45.190Z,2.10
2023-07-28T09:05:25.146Z,1.80
2023-07-28T09:07:52.982Z,1.83
2023-07-28T09:10:21.920Z,2.10
2023-07-28T09:12:50.062Z,2.42
2023-07-28T09:15:19.276Z,2.05
2023-07-28T09:17:46.489Z,2.10
2023-07-28T09:20:17.192Z,1.90
2023-07-28T09:22:45.569Z,2.30
2023-07-28T09:25:16.768Z,2.03
2023-07-28T09:27:52.216Z,1.67
2023-07-28T09:30:21.336Z,1.80
2023-07-28T09:32:49.771Z,2.03
2023-07-28T09:35:19.994Z,2.10
2023-07-28T09:37:49.758Z,2.42
2023-07-28T09:40:19.267Z,1.88
2023-07-28T09:42:53.240Z,1.45
2023-07-28T09:45:37.224Z,1.52
2023-07-28T09:48:08.657Z,1.08
2023-07-28T09:50:39.109Z,1.50
2023-07-28T09:53:12.602Z,1.40
2023-07-28T09:55:42.116Z,1.00
2023-07-28T09:58:11.155Z,1.40
2023-07-28T10:00:38.507Z,1.30
2023-07-28T10:03:05.540Z,0.95
2023-07-28T10:05:38.569Z,1.60
2023-07-28T10:08:06.020Z,1.15
2023-07-28T10:10:33.233Z,1.63
2023-07-28T10:13:00.538Z,1.38
2023-07-28T10:15:32.257Z,1.73
2023-07-28T10:20:35.799Z,1.50
2023-07-28T10:23:21.271Z,2.10
2023-07-28T10:25:50.282Z,1.42
2023-07-28T10:28:36.098Z,1.73
2023-07-28T10:31:07.443Z,1.52
2023-07-28T10:33:44.632Z,1.38
2023-07-28T10:36:34.205Z,1.38
2023-07-28T10:39:04.582Z,1.90
2023-07-28T10:41:31.911Z,1.48
2023-07-28T10:43:58.494Z,1.65
2023-07-28T10:46:25.092Z,1.48
2023-07-28T10:48:54.171Z,1.63
2023-07-28T10:51:23.157Z,1.60
2023-07-28T10:53:57.275Z,1.73
2023-07-28T10:56:26.594Z,1.67
2023-07-28T10:59:07.825Z,1.55
2023-07-28T11:01:43.843Z,1.50
2023-07-28T11:04:21.140Z,1.60
2023-07-28T11:06:55.462Z,1.70
2023-07-28T11:09:24.845Z,1.63
2023-07-28T11:11:52.435Z,1.48
2023-07-28T11:14:21.650Z,1.67
2023-07-28T11:16:51.069Z,1.40
2023-07-28T11:19:20.555Z,1.42
2023-07-28T11:21:52.172Z,1.60
2023-07-28T11:26:48.126Z,1.90
2023-07-28T11:29:14.911Z,1.20
2023-07-28T11:31:42.466Z,3.65
2023-07-28T11:34:16.208Z,1.40
2023-07-28T11:36:42.945Z,1.10
2023-07-28T11:39:11.675Z,1.20
2023-07-28T11:41:39.570Z,1.27
2023-07-28T11:44:06.280Z,1.40
2023-07-28T11:46:37.424Z,1.25
2023-07-28T11:49:20.226Z,1.50
2023-07-28T11:51:49.410Z,0.95
2023-07-28T11:54:20.408Z,1.23
2023-07-28T11:56:47.917Z,1.25
2023-07-28T11:59:19.091Z,1.23
2023-07-28T12:07:14.965Z,1.60
2023-07-28T12:09:47.834Z,1.20
2023-07-28T12:12:25.081Z,1.33
2023-07-28T12:17:27.786Z,1.15
2023-07-28T12:20:15.679Z,1.00
2023-07-28T12:22:43.581Z,1.25
2023-07-28T12:25:10.790Z,0.98
2023-07-28T12:27:37.749Z,1.15
2023-07-28T12:30:05.481Z,1.08
2023-07-28T12:32:35.602Z,1.35
2023-07-28T12:35:14.529Z,0.97
2023-07-28T12:45:22.685Z,1.02
2023-07-28T12:47:58.882Z,0.77
2023-07-28T12:50:26.288Z,1.30
2023-07-28T12:55:22.350Z,1.52
2023-07-28T12:57:51.433Z,1.70
2023-07-28T13:02:48.440Z,1.55
2023-07-28T13:05:16.479Z,1.60
2023-07-28T13:11:17.134Z,1.30
2023-07-28T13:13:05.131Z,1.52
2023-07-28T13:15:31.523Z,1.40
2023-07-28T13:17:57.958Z,1.35
2023-07-28T13:20:24.583Z,1.98
2023-07-28T13:22:51.014Z,2.22
2023-07-28T13:25:17.404Z,1.67
2023-07-28T13:27:43.830Z,1.85
2023-07-28T13:30:11.360Z,2.00
2023-07-28T13:32:37.882Z,2.17
2023-07-28T13:35:04.944Z,2.30
2023-07-28T13:37:31.349Z,2.30
2023-07-28T13:39:57.769Z,2.33
2023-07-28T13:42:24.188Z,2.85
2023-07-28T13:44:58.959Z,2.20
2023-07-28T13:47:26.042Z,2.80
2023-07-28T13:49:52.698Z,2.95
2023-07-28T13:52:22.062Z,2.67
2023-07-28T13:57:21.208Z,2.80
2023-07-28T13:59:47.705Z,2.72
2023-07-28T14:02:18.067Z,2.50
2023-07-28T14:04:44.713Z,2.50
2023-07-28T14:07:11.627Z,2.22
2023-07-28T14:09:39.032Z,2.60
2023-07-28T14:12:08.942Z,2.17
2023-07-28T14:14:37.918Z,2.25
2023-07-28T14:17:04.734Z,2.08
2023-07-28T14:19:31.123Z,1.90
2023-07-28T14:21:57.535Z,2.92
2023-07-28T14:24:24.014Z,2.92
2023-07-28T14:26:50.478Z,2.40
2023-07-28T14:29:16.919Z,2.30
2023-07-28T14:31:43.383Z,2.33
2023-07-28T14:34:09.777Z,2.17
2023-07-28T14:36:36.593Z,2.50
2023-07-28T14:39:03.656Z,2.50
2023-07-28T14:41:32.403Z,3.10
2023-07-28T14:44:03.743Z,2.22
2023-07-28T14:46:30.259Z,2.60
2023-07-28T14:48:56.926Z,2.25
2023-07-28T14:51:24.006Z,2.63
2023-07-28T14:53:50.513Z,2.63
2023-07-28T14:56:21.958Z,3.05
2023-07-28T14:58:49.046Z,3.30
2023-07-28T15:01:15.480Z,2.30
2023-07-28T15:03:42.006Z,2.47
2023-07-28T15:06:08.966Z,3.03
2023-07-28T15:08:35.730Z,2.33
2023-07-28T15:11:04.676Z,2.42
2023-07-28T15:13:31.119Z,3.30
2023-07-28T15:15:57.838Z,2.13
2023-07-28T15:18:24.363Z,2.47
2023-07-28T15:20:50.949Z,2.97
2023-07-28T15:23:19.554Z,2.65
2023-07-28T15:25:49.045Z,3.08
2023-07-28T15:28:16.200Z,2.63
2023-07-28T15:30:47.515Z,2.58
2023-07-28T15:33:14.340Z,2.40
2023-07-28T15:35:40.993Z,2.33
2023-07-28T15:38:07.771Z,2.95
2023-07-28T15:40:34.347Z,2.53
2023-07-28T15:43:00.933Z,2.55
2023-07-28T15:45:27.606Z,3.00
2023-07-28T15:47:54.108Z,3.50
2023-07-28T15:50:20.651Z,2.30
2023-07-28T15:52:47.199Z,2.38
2023-07-28T15:55:15.781Z,2.95
2023-07-28T15:57:42.256Z,2.38
2023-07-28T16:00:11.426Z,2.33
2023-07-28T16:02:38.375Z,3.05
2023-07-28T16:05:07.829Z,2.97
2023-07-28T16:07:34.249Z,2.65
2023-07-28T16:10:01.305Z,2.70
2023-07-28T16:12:28.172Z,2.55
2023-07-28T16:14:57.498Z,2.75
2023-07-28T16:17:24.054Z,2.42
2023-07-28T16:19:51.477Z,2.70
2023-07-28T16:22:18.927Z,2.40
2023-07-28T16:24:47.089Z,2.50
2023-07-28T16:27:14.253Z,2.60
2023-07-28T16:29:41.306Z,2.78
2023-07-28T16:32:13.621Z,2.60
2023-07-28T16:34:40.007Z,3.40
2023-07-28T16:37:07.750Z,2.88
2023-07-28T16:39:34.236Z,2.70
2023-07-28T16:42:00.747Z,2.53
2023-07-28T16:44:27.398Z,2.75
2023-07-28T16:46:53.811Z,3.25
2023-07-28T16:49:20.325Z,2.50
2023-07-28T16:51:46.786Z,2.88
2023-07-28T16:54:13.245Z,3.28
2023-07-28T16:56:42.127Z,2.63
2023-07-28T16:59:09.715Z,2.78
2023-07-28T17:01:36.498Z,3.35
2023-07-28T17:04:05.401Z,3.30
2023-07-28T17:06:33.909Z,2.95
2023-07-28T17:09:00.359Z,3.42
2023-07-28T17:11:28.863Z,3.17
2023-07-28T17:13:55.283Z,3.20
2023-07-28T17:16:23.135Z,2.80
2023-07-28T17:18:52.797Z,3.25
2023-07-28T17:21:20.774Z,3.10
2023-07-28T17:23:47.216Z,3.55
2023-07-28T17:26:13.847Z,3.15
2023-07-28T17:28:40.482Z,2.67
2023-07-28T17:31:06.948Z,2.95
2023-07-28T17:33:33.541Z,3.15
2023-07-28T17:36:02.034Z,3.42
2023-07-28T17:38:29.816Z,3.03
2023-07-28T17:40:56.403Z,2.50
2023-07-28T17:43:22.955Z,2.55
2023-07-28T17:45:49.481Z,3.08
2023-07-28T17:48:19.058Z,3.10
2023-07-28T17:50:45.686Z,3.00
2023-07-28T17:53:12.200Z,3.13
2023-07-28T17:55:39.234Z,3.20
2023-07-28T17:58:05.800Z,2.63
2023-07-28T18:00:33.890Z,2.35
2023-07-28T18:03:04.057Z,2.58
2023-07-28T18:05:31.009Z,3.28
2023-07-28T18:07:57.587Z,3.38
2023-07-28T18:10:24.329Z,2.88
2023-07-28T18:12:50.838Z,2.70
2023-07-28T18:15:19.657Z,2.75
2023-07-28T18:17:46.155Z,3.30
2023-07-28T18:20:12.821Z,3.00
2023-07-28T18:22:39.281Z,2.92
2023-07-28T18:25:06.258Z,3.35
2023-07-28T18:27:32.802Z,3.08
2023-07-28T18:29:59.311Z,3.53
2023-07-28T18:32:33.188Z,3.30
2023-07-28T18:34:59.652Z,3.20
2023-07-28T18:37:26.452Z,3.63
2023-07-28T18:39:52.905Z,3.75
2023-07-28T18:42:19.360Z,3.83
2023-07-28T18:44:45.861Z,3.58
2023-07-28T18:47:12.337Z,3.17
2023-07-28T18:49:38.790Z,4.30
2023-07-28T18:52:05.400Z,3.63
2023-07-28T18:54:31.837Z,3.10
2023-07-28T18:57:00.530Z,3.83
2023-07-28T18:59:27.317Z,2.88
2023-07-28T19:01:54.613Z,3.45
2023-07-28T19:04:21.799Z,3.40
2023-07-28T19:06:48.283Z,3.55
2023-07-28T19:09:14.916Z,3.38
2023-07-28T19:11:41.520Z,3.88
2023-07-28T19:14:10.535Z,2.58
2023-07-28T19:16:37.102Z,2.88
2023-07-28T19:19:04.554Z,3.17
2023-07-28T19:21:30.983Z,2.85
2023-07-28T19:23:57.666Z,2.92
2023-07-28T19:26:25.119Z,3.10
2023-07-28T19:28:52.082Z,2.20
2023-07-28T19:31:18.757Z,3.17
2023-07-28T19:33:45.231Z,2.83
2023-07-28T19:36:11.659Z,3.30
2023-07-28T19:38:38.212Z,3.25
2023-07-28T19:41:04.682Z,2.70
2023-07-28T19:43:36.992Z,3.33
2023-07-28T19:46:03.466Z,3.28
2023-07-28T19:48:31.148Z,2.97
2023-07-28T19:50:57.615Z,3.08
2023-07-28T19:53:24.098Z,3.47
2023-07-28T19:55:50.604Z,2.83
2023-07-28T19:58:19.268Z,3.88
2023-07-28T20:00:45.729Z,2.78
2023-07-28T20:03:12.505Z,2.42
2023-07-28T20:05:39.033Z,3.47
2023-07-28T20:08:07.702Z,3.28
2023-07-28T20:10:34.267Z,3.33
2023-07-28T20:13:04.064Z,4.53
2023-07-28T20:15:30.572Z,4.32
2023-07-28T20:17:57.383Z,3.00
2023-07-28T20:20:26.409Z,2.95
2023-07-28T20:22:57.900Z,3.03
2023-07-28T20:25:27.000Z,3.22
2023-07-28T20:27:53.630Z,2.85
2023-07-28T20:30:20.238Z,3.10
2023-07-28T20:32:47.404Z,2.97
2023-07-28T20:35:16.430Z,2.70
2023-07-28T20:37:46.146Z,3.03
2023-07-28T20:40:14.128Z,2.40
2023-07-28T20:42:48.550Z,3.08
2023-07-28T20:45:15.107Z,3.03
2023-07-28T20:47:41.591Z,3.15
2023-07-28T20:50:14.016Z,3.47
2023-07-28T20:52:42.839Z,2.67
2023-07-28T20:55:10.824Z,2.72
2023-07-28T20:57:38.022Z,2.60
2023-07-28T21:00:07.760Z,2.47
2023-07-28T21:02:35.537Z,3.28
2023-07-28T21:05:02.800Z,2.78
2023-07-28T21:07:29.292Z,2.28
2023-07-28T21:09:59.025Z,2.72
2023-07-28T21:12:25.531Z,1.95
2023-07-28T21:14:54.540Z,2.33
2023-07-28T21:17:21.254Z,2.83
2023-07-28T21:19:49.866Z,2.70
2023-07-28T21:22:16.329Z,2.70
2023-07-28T21:24:42.794Z,2.65
2023-07-28T21:27:09.340Z,2.45
2023-07-28T21:29:38.324Z,2.55
2023-07-28T21:32:06.537Z,2.58
2023-07-28T21:34:33.040Z,2.80
2023-07-28T21:36:59.525Z,2.80
2023-07-28T21:39:26.134Z,2.30
2023-07-28T21:41:54.796Z,2.25
2023-07-28T21:44:21.255Z,3.33
2023-07-28T21:46:48.437Z,2.55
2023-07-28T21:49:14.910Z,3.33
2023-07-28T21:51:43.441Z,3.15
2023-07-28T21:54:12.764Z,3.03
2023-07-28T21:56:41.696Z,3.15
2023-07-28T21:59:08.664Z,2.83
2023-07-28T22:01:38.122Z,2.72
2023-07-28T22:04:04.978Z,3.65
2023-07-28T22:06:31.525Z,2.80
2023-07-28T22:09:00.515Z,2.95
2023-07-28T22:11:27.060Z,3.03
2023-07-28T22:13:53.450Z,3.30
2023-07-28T22:16:19.976Z,3.10
2023-07-28T22:18:46.472Z,3.35
2023-07-28T22:21:15.356Z,2.85
2023-07-28T22:23:41.769Z,3.17
2023-07-28T22:26:08.384Z,3.38
2023-07-28T22:28:37.226Z,3.15
2023-07-28T22:31:03.777Z,3.70
2023-07-28T22:33:30.406Z,3.97
2023-07-28T22:35:57.002Z,3.80
2023-07-28T22:38:23.427Z,4.18
2023-07-28T22:40:52.254Z,3.80
2023-07-28T22:43:18.677Z,3.85
2023-07-28T22:45:45.310Z,3.97
2023-07-28T22:48:12.080Z,4.88
2023-07-28T22:50:38.547Z,4.07
2023-07-28T22:53:04.966Z,3.75
2023-07-28T22:55:31.440Z,3.90
2023-07-28T22:57:57.961Z,4.13
2023-07-28T23:00:24.520Z,3.97
2023-07-28T23:02:52.417Z,3.88
2023-07-28T23:05:19.476Z,3.40
2023-07-28T23:07:46.421Z,3.05
2023-07-28T23:10:17.233Z,2.65
2023-07-28T23:12:47.716Z,3.08
2023-07-28T23:15:15.404Z,3.17
2023-07-28T23:17:47.867Z,3.45
2023-07-28T23:20:14.338Z,2.88
2023-07-28T23:22:43.403Z,2.50
2023-07-28T23:25:09.937Z,2.50
2023-07-28T23:27:37.186Z,2.15
2023-07-28T23:30:07.723Z,2.70
2023-07-28T23:32:36.596Z,2.75
2023-07-28T23:35:06.512Z,2.60
2023-07-28T23:37:33.840Z,2.03
2023-07-28T23:40:00.493Z,2.47
2023-07-28T23:42:27.242Z,2.13
2023-07-28T23:44:55.891Z,2.28
2023-07-28T23:47:23.246Z,1.83
2023-07-28T23:49:49.695Z,2.10
2023-07-28T23:52:16.184Z,2.17
2023-07-28T23:54:45.283Z,2.50
2023-07-28T23:57:11.863Z,2.00
2023-07-28T23:59:38.294Z,2.20
